createdAt,value
2023-03-31T00:01:01.037Z,11.40
2023-03-31T00:03:29.472Z,10.80
2023-03-31T00:06:00.065Z,11.00
2023-03-31T00:08:30.154Z,10.50
2023-03-31T00:11:01.324Z,10.50
2023-03-31T00:13:29.659Z,10.50
2023-03-31T00:15:58.998Z,10.50
2023-03-31T00:18:27.223Z,11.00
2023-03-31T00:20:58.208Z,11.50
2023-03-31T00:23:28.956Z,11.40
2023-03-31T00:25:57.003Z,10.80
2023-03-31T00:28:25.080Z,11.70
2023-03-31T00:30:53.586Z,10.70
2023-03-31T00:33:21.806Z,11.20
2023-03-31T00:35:52.790Z,10.70
2023-03-31T00:38:21.923Z,10.70
2023-03-31T00:40:53.707Z,10.70
2023-03-31T00:43:33.393Z,10.80
2023-03-31T00:46:13.816Z,11.70
2023-03-31T00:48:44.039Z,10.80
2023-03-31T00:51:12.627Z,10.90
2023-03-31T00:53:41.645Z,11.80
2023-03-31T00:56:15.860Z,11.00
2023-03-31T00:58:45.847Z,11.10
2023-03-31T01:01:19.347Z,11.10
2023-03-31T01:03:48.342Z,11.10
2023-03-31T01:06:19.894Z,11.10
2023-03-31T01:08:49.952Z,11.20
2023-03-31T01:11:21.871Z,11.00
2023-03-31T01:13:51.731Z,11.20
2023-03-31T01:16:20.019Z,11.60
2023-03-31T01:18:49.839Z,11.20
2023-03-31T01:21:57.058Z,11.20
2023-03-31T01:24:47.551Z,11.20
2023-03-31T01:27:50.852Z,11.60
2023-03-31T01:30:54.067Z,11.50
2023-03-31T01:33:43.962Z,11.20
2023-03-31T01:36:43.187Z,11.10
2023-03-31T01:39:46.156Z,11.50
2023-03-31T01:42:17.938Z,11.10
2023-03-31T01:44:55.198Z,11.10
2023-03-31T01:47:29.135Z,11.10
2023-03-31T01:50:03.920Z,11.00
2023-03-31T01:52:39.650Z,11.00
2023-03-31T01:55:12.692Z,11.10
2023-03-31T01:57:46.676Z,11.00
2023-03-31T02:00:18.280Z,11.00
2023-03-31T02:02:50.395Z,11.00
2023-03-31T02:05:21.863Z,11.30
2023-03-31T02:07:53.886Z,11.00
2023-03-31T02:10:24.788Z,11.00
2023-03-31T02:12:56.256Z,10.90
2023-03-31T02:15:29.170Z,11.30
2023-03-31T02:18:00.114Z,10.90
2023-03-31T02:20:32.481Z,10.90
2023-03-31T02:23:00.649Z,11.90
2023-03-31T02:25:35.357Z,10.90
2023-03-31T02:28:09.620Z,10.80
2023-03-31T02:30:46.596Z,10.80
2023-03-31T02:33:15.726Z,10.80
2023-03-31T02:35:43.943Z,10.80
2023-03-31T02:38:12.080Z,10.80
2023-03-31T02:40:40.262Z,11.20
2023-03-31T02:43:09.684Z,11.00
2023-03-31T02:45:45.014Z,11.20
2023-03-31T02:48:18.889Z,10.80
2023-03-31T02:51:18.665Z,10.80
2023-03-31T02:54:07.973Z,10.70
2023-03-31T02:56:53.412Z,10.70
2023-03-31T02:59:37.758Z,10.70
2023-03-31T03:02:15.110Z,10.70
2023-03-31T03:05:09.177Z,10.70
2023-03-31T03:07:45.537Z,10.60
2023-03-31T03:10:18.493Z,10.60
2023-03-31T03:12:53.603Z,10.60
2023-03-31T03:15:27.287Z,10.60
2023-03-31T03:17:57.785Z,10.60
2023-03-31T03:20:26.064Z,10.50
2023-03-31T03:22:54.041Z,10.40
2023-03-31T03:25:22.190Z,11.00
2023-03-31T03:27:53.050Z,10.40
2023-03-31T03:30:22.604Z,10.40
2023-03-31T03:32:50.675Z,10.30
2023-03-31T03:35:18.753Z,10.30
2023-03-31T03:37:46.784Z,10.40
2023-03-31T03:40:15.344Z,10.40
2023-03-31T03:42:43.460Z,10.30
2023-03-31T03:45:11.900Z,10.70
2023-03-31T03:47:41.470Z,10.40
2023-03-31T03:50:12.493Z,11.10
2023-03-31T03:52:41.511Z,10.30
2023-03-31T03:55:12.004Z,11.00
2023-03-31T03:57:39.979Z,10.30
2023-03-31T04:00:12.386Z,10.50
2023-03-31T04:02:42.261Z,10.30
2023-03-31T04:05:11.034Z,10.80
2023-03-31T04:07:39.045Z,10.00
2023-03-31T04:10:08.314Z,10.50
2023-03-31T04:12:36.920Z,10.40
2023-03-31T04:15:06.383Z,10.40
2023-03-31T04:17:34.967Z,10.40
2023-03-31T04:20:09.389Z,10.40
2023-03-31T04:22:40.730Z,10.40
2023-03-31T04:25:16.216Z,10.40
2023-03-31T04:27:46.683Z,10.40
2023-03-31T04:30:22.566Z,10.40
2023-03-31T04:32:53.253Z,10.40
2023-03-31T04:35:24.354Z,10.90
2023-03-31T04:37:59.222Z,10.40
2023-03-31T04:40:27.613Z,10.50
2023-03-31T04:42:55.605Z,10.40
2023-03-31T04:45:23.535Z,11.40
2023-03-31T04:47:51.515Z,10.40
2023-03-31T04:50:19.681Z,10.60
2023-03-31T04:52:49.067Z,10.30
2023-03-31T04:55:17.114Z,10.80
2023-03-31T04:57:45.092Z,10.40
2023-03-31T05:00:14.342Z,10.40
2023-03-31T05:02:42.719Z,10.40
2023-03-31T05:05:11.521Z,10.40
2023-03-31T05:07:39.544Z,10.40
2023-03-31T05:10:09.782Z,10.40
2023-03-31T05:12:38.047Z,10.40
2023-03-31T05:15:07.708Z,10.40
2023-03-31T05:17:38.162Z,10.40
2023-03-31T05:20:08.428Z,10.40
2023-03-31T05:22:37.484Z,10.40
2023-03-31T05:25:09.452Z,10.70
2023-03-31T05:27:37.755Z,10.40
2023-03-31T05:30:08.175Z,10.40
2023-03-31T05:32:36.213Z,10.40
2023-03-31T05:35:04.377Z,10.40
2023-03-31T05:37:32.826Z,10.40
2023-03-31T05:40:01.175Z,10.50
2023-03-31T05:42:30.580Z,10.30
2023-03-31T05:44:58.726Z,10.30
2023-03-31T05:47:27.134Z,10.40
2023-03-31T05:49:55.177Z,10.40
2023-03-31T05:52:23.244Z,10.40
2023-03-31T05:54:51.205Z,10.30
2023-03-31T05:57:19.223Z,10.30
2023-03-31T05:59:48.609Z,10.40
2023-03-31T06:02:17.144Z,10.50
2023-03-31T06:04:45.125Z,10.30
2023-03-31T06:07:15.060Z,10.30
2023-03-31T06:09:43.094Z,10.30
2023-03-31T06:12:11.124Z,10.30
2023-03-31T06:14:39.097Z,10.30
2023-03-31T06:17:08.404Z,10.30
2023-03-31T06:19:36.400Z,10.30
2023-03-31T06:22:04.411Z,10.30
2023-03-31T06:24:32.446Z,10.50
2023-03-31T06:27:01.258Z,10.30
2023-03-31T06:29:29.334Z,10.30
2023-03-31T06:31:57.377Z,10.30
2023-03-31T06:34:27.092Z,10.40
2023-03-31T06:36:55.076Z,10.40
2023-03-31T06:39:23.314Z,10.30
2023-03-31T06:41:51.889Z,10.40
2023-03-31T06:44:23.056Z,10.40
2023-03-31T06:46:51.108Z,11.20
2023-03-31T06:49:19.120Z,10.50
2023-03-31T06:51:48.442Z,10.20
2023-03-31T06:54:16.427Z,10.40
2023-03-31T06:56:44.411Z,10.50
2023-03-31T06:59:12.434Z,10.50
2023-03-31T07:01:42.505Z,10.50
2023-03-31T07:04:11.025Z,10.50
2023-03-31T07:06:39.000Z,10.50
2023-03-31T07:09:08.356Z,10.50
2023-03-31T07:11:36.361Z,10.60
2023-03-31T07:14:04.340Z,10.60
2023-03-31T07:16:32.647Z,10.60
2023-03-31T07:19:04.328Z,10.70
2023-03-31T07:21:32.389Z,10.70
2023-03-31T07:24:00.679Z,10.70
2023-03-31T07:26:30.004Z,10.70
2023-03-31T07:28:57.973Z,11.20
2023-03-31T07:31:26.446Z,10.80
2023-03-31T07:33:54.420Z,10.80
2023-03-31T07:36:22.547Z,10.80
2023-03-31T07:38:50.774Z,10.80
2023-03-31T07:41:20.512Z,10.90
2023-03-31T07:43:50.939Z,11.10
2023-03-31T07:46:21.455Z,11.40
2023-03-31T07:48:49.927Z,11.00
2023-03-31T07:51:20.455Z,11.00
2023-03-31T07:53:52.254Z,11.00
2023-03-31T07:56:21.218Z,11.10
2023-03-31T07:58:51.175Z,11.90
2023-03-31T08:01:20.747Z,11.30
2023-03-31T08:03:49.647Z,11.40
2023-03-31T08:06:19.759Z,11.30
2023-03-31T08:08:47.713Z,11.40
2023-03-31T08:11:15.976Z,11.50
2023-03-31T08:13:43.956Z,11.40
2023-03-31T08:16:13.299Z,12.00
2023-03-31T08:18:41.331Z,12.30
2023-03-31T08:21:10.805Z,11.90
2023-03-31T08:23:38.875Z,11.50
2023-03-31T08:26:17.758Z,12.10
2023-03-31T08:28:46.079Z,11.70
2023-03-31T08:31:16.410Z,11.50
2023-03-31T08:33:44.722Z,11.50
2023-03-31T08:36:13.649Z,11.40
2023-03-31T08:38:46.092Z,12.30
2023-03-31T08:41:31.821Z,11.50
2023-03-31T08:44:02.758Z,11.60
2023-03-31T08:46:35.578Z,12.50
2023-03-31T08:49:05.404Z,11.70
2023-03-31T08:51:37.524Z,11.70
2023-03-31T08:54:08.154Z,11.80
2023-03-31T08:56:39.384Z,11.80
2023-03-31T08:59:08.564Z,12.10
2023-03-31T09:01:55.475Z,12.60
2023-03-31T09:04:40.175Z,12.00
2023-03-31T09:07:16.672Z,12.00
2023-03-31T09:09:53.193Z,12.00
2023-03-31T09:12:24.623Z,12.00
2023-03-31T09:14:59.020Z,12.00
2023-03-31T09:17:31.254Z,12.10
2023-03-31T09:20:01.141Z,12.10
2023-03-31T09:22:33.793Z,12.10
2023-03-31T09:25:06.802Z,12.10
2023-03-31T09:27:37.368Z,12.10
2023-03-31T09:30:14.678Z,12.10
2023-03-31T09:32:44.339Z,12.00
2023-03-31T09:35:18.565Z,12.10
2023-03-31T09:37:46.613Z,12.10
2023-03-31T09:40:18.654Z,12.00
2023-03-31T09:42:47.521Z,12.10
2023-03-31T09:45:18.137Z,12.10
2023-03-31T09:47:51.436Z,12.10
2023-03-31T09:50:20.086Z,12.10
2023-03-31T09:52:56.334Z,12.00
2023-03-31T09:55:38.921Z,12.00
2023-03-31T09:58:09.436Z,12.00
2023-03-31T10:00:37.719Z,12.00
2023-03-31T10:03:08.496Z,11.90
2023-03-31T10:05:40.054Z,11.80
2023-03-31T10:08:22.212Z,11.80
2023-03-31T10:10:52.220Z,11.90
2023-03-31T10:13:23.256Z,11.90
2023-03-31T10:15:54.937Z,11.80
2023-03-31T10:18:34.396Z,11.80
2023-03-31T10:21:04.913Z,11.40
2023-03-31T10:23:34.557Z,11.60
2023-03-31T10:26:04.888Z,11.60
2023-03-31T10:28:35.403Z,11.60
2023-03-31T10:31:04.639Z,11.60
2023-03-31T10:33:35.766Z,11.60
2023-03-31T10:36:09.542Z,11.60
2023-03-31T10:38:40.651Z,11.70
2023-03-31T10:41:09.160Z,11.80
2023-03-31T10:43:41.724Z,11.70
2023-03-31T10:46:10.806Z,11.70
2023-03-31T10:48:42.547Z,11.70
2023-03-31T10:51:16.618Z,11.80
2023-03-31T10:53:46.240Z,11.80
2023-03-31T10:56:36.194Z,11.90
2023-03-31T10:59:28.239Z,11.80
2023-03-31T11:02:19.409Z,11.90
2023-03-31T11:04:58.228Z,11.90
2023-03-31T11:07:40.618Z,12.00
2023-03-31T11:10:31.289Z,12.20
2023-03-31T11:13:05.881Z,11.90
2023-03-31T11:15:39.388Z,11.90
2023-03-31T11:18:37.564Z,12.00
2023-03-31T11:21:16.964Z,11.90
2023-03-31T11:23:51.729Z,11.90
2023-03-31T11:26:26.954Z,11.90
2023-03-31T11:29:07.818Z,11.80
2023-03-31T11:31:47.681Z,12.00
2023-03-31T11:34:38.878Z,12.00
2023-03-31T11:37:36.657Z,11.90
2023-03-31T11:40:20.265Z,12.00
2023-03-31T11:42:54.979Z,11.90
2023-03-31T11:45:27.282Z,12.00
2023-03-31T11:47:57.551Z,12.00
2023-03-31T11:50:30.049Z,11.90
2023-03-31T11:53:03.370Z,11.90
2023-03-31T11:55:33.622Z,11.90
2023-03-31T11:58:05.610Z,11.80
2023-03-31T12:00:36.134Z,11.90
2023-03-31T12:03:12.839Z,11.80
2023-03-31T12:05:46.731Z,11.80
2023-03-31T12:08:20.260Z,12.60
2023-03-31T12:10:52.865Z,11.80
2023-03-31T12:13:35.121Z,11.90
2023-03-31T12:16:07.847Z,11.80
2023-03-31T12:18:42.299Z,11.80
2023-03-31T12:21:11.505Z,11.80
2023-03-31T12:23:45.207Z,11.80
2023-03-31T12:26:31.089Z,11.80
2023-03-31T12:29:01.734Z,11.90
2023-03-31T12:31:33.024Z,11.90
2023-03-31T12:34:04.153Z,11.80
2023-03-31T12:36:56.489Z,11.90
2023-03-31T12:39:40.857Z,11.90
2023-03-31T12:42:26.378Z,11.90
2023-03-31T12:44:58.024Z,11.80
2023-03-31T12:47:52.767Z,11.80
2023-03-31T12:50:42.110Z,11.80
2023-03-31T12:53:21.322Z,11.80
2023-03-31T12:55:51.984Z,11.70
2023-03-31T12:58:45.972Z,11.70
2023-03-31T13:01:19.462Z,11.80
2023-03-31T13:03:54.083Z,11.90
2023-03-31T13:06:49.505Z,11.90
2023-03-31T13:09:43.660Z,11.80
2023-03-31T13:12:18.595Z,11.80
2023-03-31T13:14:49.147Z,11.90
2023-03-31T13:17:27.218Z,11.90
2023-03-31T13:19:56.431Z,12.00
2023-03-31T13:22:36.377Z,12.10
2023-03-31T13:25:40.665Z,12.10
2023-03-31T13:28:18.347Z,12.10
2023-03-31T13:30:51.987Z,12.10
2023-03-31T13:33:24.278Z,12.00
2023-03-31T13:35:53.961Z,12.20
2023-03-31T13:38:32.053Z,12.10
2023-03-31T13:41:11.932Z,12.00
2023-03-31T13:44:02.670Z,12.00
2023-03-31T13:46:52.248Z,12.10
2023-03-31T13:49:52.268Z,12.00
2023-03-31T13:52:34.549Z,11.90
2023-03-31T13:55:19.138Z,11.90
2023-03-31T13:58:29.546Z,12.10
2023-03-31T14:01:20.706Z,12.00
2023-03-31T14:04:02.118Z,12.00
2023-03-31T14:06:37.400Z,11.90
2023-03-31T14:09:08.605Z,12.00
2023-03-31T14:11:36.791Z,11.90
2023-03-31T14:14:07.498Z,11.80
2023-03-31T14:16:41.398Z,11.80
2023-03-31T14:19:44.098Z,11.80
2023-03-31T14:22:20.274Z,11.80
2023-03-31T14:24:56.370Z,11.80
2023-03-31T14:27:41.581Z,11.80
2023-03-31T14:30:18.788Z,11.70
2023-03-31T14:32:58.155Z,11.70
2023-03-31T14:35:32.881Z,11.60
2023-03-31T14:38:05.090Z,11.60
2023-03-31T14:40:32.946Z,11.70
2023-03-31T14:43:01.150Z,11.60
2023-03-31T14:45:34.459Z,11.60
2023-03-31T14:48:13.481Z,11.50
2023-03-31T14:50:44.498Z,11.60
2023-03-31T14:53:17.140Z,11.60
2023-03-31T14:55:58.171Z,11.60
2023-03-31T14:58:30.349Z,11.50
2023-03-31T15:00:58.579Z,11.40
2023-03-31T15:03:28.634Z,11.50
2023-03-31T15:05:59.583Z,11.60
2023-03-31T15:08:29.763Z,11.50
2023-03-31T15:11:11.890Z,11.50
2023-03-31T15:13:56.761Z,11.50
2023-03-31T15:16:36.218Z,11.50
2023-03-31T15:19:16.233Z,11.50
2023-03-31T15:21:45.457Z,11.50
2023-03-31T15:24:14.942Z,11.50
2023-03-31T15:26:47.333Z,11.50
2023-03-31T15:29:20.479Z,11.40
2023-03-31T15:31:48.891Z,11.40
2023-03-31T15:34:24.797Z,11.40
2023-03-31T15:36:56.219Z,11.50
2023-03-31T15:39:24.876Z,11.30
2023-03-31T15:41:53.781Z,11.40
2023-03-31T15:44:46.574Z,11.40
2023-03-31T15:47:18.549Z,11.40
2023-03-31T15:49:56.299Z,11.40
2023-03-31T15:52:29.452Z,11.40
2023-03-31T15:54:57.835Z,11.40
2023-03-31T15:57:36.413Z,11.30
2023-03-31T16:00:07.854Z,11.20
2023-03-31T16:02:44.088Z,11.20
2023-03-31T16:05:32.301Z,11.20
2023-03-31T16:08:03.722Z,11.20
2023-03-31T16:10:33.413Z,11.10
2023-03-31T16:13:04.460Z,11.10
2023-03-31T16:15:36.234Z,11.10
2023-03-31T16:18:08.886Z,11.10
2023-03-31T16:20:42.727Z,11.10
2023-03-31T16:23:16.334Z,11.10
2023-03-31T16:25:45.019Z,11.30
2023-03-31T16:28:17.851Z,11.50
2023-03-31T16:30:46.669Z,11.20
2023-03-31T16:33:17.616Z,11.30
2023-03-31T16:35:50.990Z,11.20
2023-03-31T16:38:19.572Z,11.10
2023-03-31T16:40:49.539Z,11.10
2023-03-31T16:43:19.417Z,11.10
2023-03-31T16:45:49.286Z,11.10
2023-03-31T16:48:18.795Z,11.10
2023-03-31T16:50:49.694Z,11.00
2023-03-31T16:53:20.042Z,11.00
2023-03-31T16:55:48.070Z,11.00
2023-03-31T16:58:16.633Z,11.00
2023-03-31T17:00:45.633Z,10.90
2023-03-31T17:03:14.895Z,10.80
2023-03-31T17:05:47.439Z,10.80
2023-03-31T17:08:16.867Z,10.70
2023-03-31T17:10:53.441Z,10.60
2023-03-31T17:13:21.977Z,10.70
2023-03-31T17:15:52.073Z,10.80
2023-03-31T17:18:24.057Z,10.60
2023-03-31T17:20:53.705Z,10.60
2023-03-31T17:23:23.393Z,10.60
2023-03-31T17:25:53.867Z,10.60
2023-03-31T17:28:21.863Z,10.60
2023-03-31T17:30:50.314Z,10.50
2023-03-31T17:33:18.938Z,10.80
2023-03-31T17:35:47.244Z,10.60
2023-03-31T17:38:15.900Z,10.60
2023-03-31T17:40:45.469Z,11.00
2023-03-31T17:43:13.990Z,10.50
2023-03-31T17:45:42.237Z,10.50
2023-03-31T17:48:10.780Z,11.50
2023-03-31T17:50:39.189Z,10.50
2023-03-31T17:53:09.081Z,10.40
2023-03-31T17:55:39.244Z,10.50
2023-03-31T17:58:13.488Z,10.50
2023-03-31T18:00:41.822Z,10.30
2023-03-31T18:03:10.754Z,10.40
2023-03-31T18:05:41.006Z,10.60
2023-03-31T18:08:08.948Z,10.40
2023-03-31T18:10:39.694Z,10.40
2023-03-31T18:13:11.450Z,10.70
2023-03-31T18:15:39.405Z,10.40
2023-03-31T18:18:07.553Z,10.60
2023-03-31T18:20:35.825Z,10.40
2023-03-31T18:23:04.649Z,10.50
2023-03-31T18:25:32.925Z,10.40
2023-03-31T18:28:01.722Z,10.70
2023-03-31T18:30:31.228Z,10.30
2023-03-31T18:33:00.125Z,10.30
2023-03-31T18:35:28.384Z,10.30
2023-03-31T18:37:56.387Z,10.60
2023-03-31T18:40:24.603Z,10.70
2023-03-31T18:42:52.545Z,11.30
2023-03-31T18:45:20.515Z,10.50
2023-03-31T18:47:50.777Z,10.20
2023-03-31T18:50:19.135Z,10.20
2023-03-31T18:52:47.745Z,10.20
2023-03-31T18:55:17.023Z,10.20
2023-03-31T18:57:45.037Z,10.20
2023-03-31T19:00:14.897Z,10.20
2023-03-31T19:02:43.205Z,10.20
2023-03-31T19:05:13.032Z,10.20
2023-03-31T19:07:41.377Z,10.20
2023-03-31T19:10:10.657Z,10.20
2023-03-31T19:12:38.705Z,10.20
2023-03-31T19:15:07.920Z,10.20
2023-03-31T19:17:35.890Z,10.20
2023-03-31T19:20:05.914Z,10.20
2023-03-31T19:22:36.004Z,10.20
2023-03-31T19:25:04.056Z,10.20
2023-03-31T19:27:32.002Z,10.20
2023-03-31T19:29:59.929Z,10.20
2023-03-31T19:32:28.210Z,10.30
2023-03-31T19:34:56.239Z,10.60
2023-03-31T19:37:24.213Z,10.30
2023-03-31T19:39:53.590Z,10.40
2023-03-31T19:42:21.582Z,10.30
2023-03-31T19:44:49.601Z,10.20
2023-03-31T19:47:17.644Z,10.80
2023-03-31T19:49:45.687Z,10.30
2023-03-31T19:52:13.639Z,10.20
2023-03-31T19:54:42.094Z,10.40
2023-03-31T19:57:12.245Z,10.40
2023-03-31T19:59:40.446Z,10.20
2023-03-31T20:02:09.578Z,10.40
2023-03-31T20:04:37.889Z,10.80
2023-03-31T20:07:06.061Z,10.20
2023-03-31T20:09:34.773Z,10.40
2023-03-31T20:12:02.805Z,10.20
2023-03-31T20:14:32.137Z,10.40
2023-03-31T20:17:01.055Z,10.20
2023-03-31T20:19:29.623Z,10.20
2023-03-31T20:21:57.962Z,10.40
2023-03-31T20:24:27.341Z,10.40
2023-03-31T20:26:55.495Z,10.20
2023-03-31T20:29:24.774Z,11.10
2023-03-31T20:31:54.448Z,10.50
2023-03-31T20:34:23.370Z,10.30
2023-03-31T20:36:52.814Z,10.20
2023-03-31T20:39:21.700Z,10.30
2023-03-31T20:41:51.138Z,10.30
2023-03-31T20:44:19.109Z,10.20
2023-03-31T20:46:47.556Z,10.60
2023-03-31T20:49:16.966Z,10.20
2023-03-31T20:51:45.877Z,10.20
2023-03-31T20:54:13.891Z,10.20
2023-03-31T20:56:42.574Z,10.30
2023-03-31T20:59:12.833Z,10.30
2023-03-31T21:01:42.425Z,10.30
2023-03-31T21:04:12.210Z,10.60
2023-03-31T21:06:43.739Z,10.20
2023-03-31T21:09:12.659Z,10.40
2023-03-31T21:11:41.439Z,10.80
2023-03-31T21:14:11.932Z,10.20
2023-03-31T21:16:40.160Z,10.30
2023-03-31T21:19:08.327Z,10.40
2023-03-31T21:21:36.623Z,10.90
2023-03-31T21:24:08.112Z,10.20
2023-03-31T21:26:36.109Z,10.20
2023-03-31T21:29:04.067Z,10.40
2023-03-31T21:31:32.267Z,10.30
2023-03-31T21:34:02.504Z,10.20
2023-03-31T21:36:30.923Z,10.20
2023-03-31T21:38:59.027Z,10.20
2023-03-31T21:41:30.688Z,10.20
2023-03-31T21:44:03.234Z,10.40
2023-03-31T21:46:33.946Z,10.20
2023-03-31T21:49:03.246Z,10.50
2023-03-31T21:51:31.664Z,10.40
2023-03-31T21:53:59.677Z,10.10
2023-03-31T21:56:32.164Z,10.10
2023-03-31T21:59:04.030Z,10.60
2023-03-31T22:01:32.425Z,10.10
2023-03-31T22:04:00.638Z,10.30
2023-03-31T22:06:49.802Z,10.30
2023-03-31T22:09:17.954Z,10.10
2023-03-31T22:11:47.338Z,10.10
2023-03-31T22:14:15.557Z,10.40
2023-03-31T22:16:43.776Z,10.30
2023-03-31T22:19:13.683Z,10.40
2023-03-31T22:21:43.457Z,10.10
2023-03-31T22:24:13.424Z,10.00
2023-03-31T22:26:41.404Z,10.20
2023-03-31T22:29:15.179Z,10.10
2023-03-31T22:31:43.181Z,10.20
2023-03-31T22:34:11.423Z,9.90
2023-03-31T22:36:39.390Z,9.90
2023-03-31T22:39:07.611Z,10.00
2023-03-31T22:41:35.632Z,10.10
2023-03-31T22:44:03.595Z,10.00
2023-03-31T22:46:33.567Z,10.00
2023-03-31T22:49:01.610Z,9.90
2023-03-31T22:51:29.988Z,9.80
2023-03-31T22:53:58.276Z,10.20
2023-03-31T22:56:26.910Z,9.80
2023-03-31T22:58:57.859Z,9.90
2023-03-31T23:01:26.418Z,9.80
2023-03-31T23:03:56.246Z,9.80
2023-03-31T23:06:24.266Z,10.80
2023-03-31T23:08:52.519Z,10.10
2023-03-31T23:11:20.615Z,9.80
2023-03-31T23:13:48.798Z,9.90
2023-03-31T23:16:18.941Z,9.90
2023-03-31T23:18:48.520Z,9.70
2023-03-31T23:21:21.588Z,9.70
2023-03-31T23:23:52.455Z,10.20
2023-03-31T23:26:21.572Z,9.70
2023-03-31T23:28:50.486Z,10.00
2023-03-31T23:31:19.867Z,9.70
2023-03-31T23:33:48.200Z,9.70
2023-03-31T23:36:18.447Z,9.60
2023-03-31T23:38:47.050Z,9.90
2023-03-31T23:41:15.518Z,9.60
2023-03-31T23:43:43.898Z,9.60
2023-03-31T23:46:12.915Z,9.60
2023-03-31T23:48:41.388Z,10.00
2023-03-31T23:51:10.463Z,9.90
2023-03-31T23:53:39.839Z,9.50
2023-03-31T23:56:11.112Z,9.50
2023-03-31T23:58:40.227Z,9.60
